Terminal Aerodrome Forecast
Issued by NWS Charleston, WV

Current Version | Previous Version | Text Only | Print | Product List | Glossary Off
Versions: 1 2 3 4 5 6 7 8 9 10 11 12 13 14 15 16 17 18 19 20 21 22 23 24 25 26 27 28

000
FTUS41 KRLX 241100 RRA
TAFPKB
TAF
KPKB 241145Z 2412/2512 02006KT P6SM SCT012 BKN040
     FM241400 04004KT P6SM BKN035
     FM242000 VRB03KT P6SM SCT035 OVC060
     FM250300 VRB03KT 5SM -SHRA BR OVC040
     FM251100 16007KT P6SM SCT040 BKN080=

USA.gov is the U.S. government's official web portal to all federal, state and local government web resources and services.